createdAt,value
2018-12-18T00:00:16.820Z,99.1
2018-12-18T00:01:16.845Z,99.1
2018-12-18T00:02:16.114Z,99.1
2018-12-18T00:03:16.382Z,99.2
2018-12-18T00:04:16.649Z,99.2
2018-12-18T00:05:16.913Z,99.2
2018-12-18T00:06:16.186Z,99.2
2018-12-18T00:07:16.447Z,99.1
2018-12-18T00:08:16.720Z,99.1
2018-12-18T00:09:16.997Z,99.2
2018-12-18T00:10:16.270Z,99.1
2018-12-18T00:11:16.300Z,99.1
2018-12-18T00:12:16.568Z,99.2
2018-12-18T00:13:16.835Z,99.2
2018-12-18T00:14:17.103Z,99.2
2018-12-18T00:15:16.370Z,99.2
2018-12-18T00:16:16.633Z,99.2
2018-12-18T00:17:16.894Z,99.2
2018-12-18T00:18:16.154Z,99.2
2018-12-18T00:19:16.418Z,99.2
2018-12-18T00:20:16.720Z,99.1
2018-12-18T00:21:16.736Z,99.0
2018-12-18T00:22:17.008Z,99.0
2018-12-18T00:23:16.279Z,99.0
2018-12-18T00:24:16.556Z,99.2
2018-12-18T00:25:16.816Z,99.2
2018-12-18T00:26:17.092Z,99.3
2018-12-18T00:27:16.350Z,99.4
2018-12-18T00:28:16.619Z,99.3
2018-12-18T00:29:16.890Z,99.3
2018-12-18T00:30:16.164Z,99.2
2018-12-18T00:31:16.255Z,99.3
2018-12-18T00:32:16.518Z,99.3
2018-12-18T00:33:16.792Z,99.3
2018-12-18T00:34:17.054Z,99.5
2018-12-18T00:35:16.317Z,99.5
2018-12-18T00:36:16.579Z,99.5
2018-12-18T00:37:16.863Z,99.5
2018-12-18T00:38:16.139Z,99.5
2018-12-18T00:39:16.412Z,99.5
2018-12-18T00:40:16.695Z,99.5
2018-12-18T00:41:16.745Z,99.5
2018-12-18T00:42:17.015Z,99.4
2018-12-18T00:43:16.271Z,99.5
2018-12-18T00:44:16.538Z,99.4
2018-12-18T00:45:16.813Z,99.3
2018-12-18T00:46:17.088Z,99.4
2018-12-18T00:47:16.356Z,99.5
2018-12-18T00:48:16.617Z,99.5
2018-12-18T00:49:16.876Z,99.5
2018-12-18T00:50:16.164Z,99.4
2018-12-18T00:51:16.203Z,99.3
2018-12-18T00:52:16.478Z,99.2
2018-12-18T00:53:16.744Z,99.0
2018-12-18T00:54:17.011Z,98.8
2018-12-18T00:55:16.298Z,99.0
2018-12-18T00:56:16.553Z,99.0
2018-12-18T00:57:16.819Z,98.9
2018-12-18T00:58:17.079Z,99.0
2018-12-18T00:59:16.337Z,98.9
2018-12-18T01:00:16.616Z,99.0
2018-12-18T01:01:16.645Z,99.0
2018-12-18T01:02:16.914Z,99.0
2018-12-18T01:03:16.177Z,99.0
2018-12-18T01:04:16.445Z,99.0
2018-12-18T01:05:16.708Z,99.1
2018-12-18T01:06:16.982Z,99.2
2018-12-18T01:07:16.270Z,99.2
2018-12-18T01:08:16.538Z,99.2
2018-12-18T01:09:16.803Z,99.0
2018-12-18T01:10:17.071Z,99.0
2018-12-18T01:11:16.948Z,99.0
2018-12-18T01:12:16.215Z,99.1
2018-12-18T01:13:16.484Z,99.2
2018-12-18T01:14:16.753Z,99.2
2018-12-18T01:15:17.024Z,99.2
2018-12-18T01:16:16.298Z,99.2
2018-12-18T01:17:16.567Z,99.2
2018-12-18T01:18:16.827Z,99.1
2018-12-18T01:19:17.096Z,99.2
2018-12-18T01:20:16.366Z,99.2
2018-12-18T01:21:16.406Z,99.2
2018-12-18T01:22:16.665Z,99.3
2018-12-18T01:23:16.938Z,99.3
2018-12-18T01:24:16.212Z,99.2
2018-12-18T01:25:16.473Z,99.2
2018-12-18T01:26:16.737Z,99.0
2018-12-18T01:27:17.010Z,99.0
2018-12-18T01:28:16.282Z,99.0
2018-12-18T01:29:16.559Z,99.0
2018-12-18T01:30:16.899Z,99.0
2018-12-18T01:31:16.925Z,99.0
2018-12-18T01:32:16.189Z,99.0
2018-12-18T01:33:16.450Z,98.9
2018-12-18T01:34:16.719Z,99.0
2018-12-18T01:35:16.985Z,98.9
2018-12-18T01:36:16.253Z,99.0
2018-12-18T01:37:16.518Z,99.0
2018-12-18T01:38:16.785Z,99.2
2018-12-18T01:39:17.047Z,99.5
2018-12-18T01:40:16.321Z,99.5
2018-12-18T01:41:16.386Z,99.7
2018-12-18T01:42:16.642Z,99.6
2018-12-18T01:43:16.907Z,99.6
2018-12-18T01:44:16.184Z,99.6
2018-12-18T01:45:16.450Z,99.6
2018-12-18T01:46:16.713Z,99.5
2018-12-18T01:47:16.976Z,99.5
2018-12-18T01:48:16.252Z,99.5
2018-12-18T01:49:16.520Z,99.5
2018-12-18T01:50:16.824Z,99.4
2018-12-18T01:51:16.840Z,99.3
2018-12-18T01:52:16.114Z,99.3
2018-12-18T01:53:16.380Z,99.3
2018-12-18T01:54:16.651Z,99.4
2018-12-18T01:55:16.924Z,99.3
2018-12-18T01:56:16.191Z,99.3
2018-12-18T01:57:16.485Z,99.4
2018-12-18T01:58:16.760Z,99.4
2018-12-18T01:59:17.024Z,99.3
2018-12-18T02:00:16.301Z,99.3
2018-12-18T02:01:16.348Z,99.3
2018-12-18T02:02:16.617Z,99.3
2018-12-18T02:03:16.887Z,99.3
2018-12-18T02:04:16.152Z,99.3
2018-12-18T02:05:16.450Z,99.3
2018-12-18T02:06:16.712Z,99.2
2018-12-18T02:07:16.978Z,99.2
2018-12-18T02:08:16.234Z,99.2
2018-12-18T02:09:16.517Z,99.2
2018-12-18T02:10:16.807Z,99.2
2018-12-18T02:11:16.826Z,99.2
2018-12-18T02:12:17.090Z,99.2
2018-12-18T02:13:16.368Z,99.3
2018-12-18T02:14:16.660Z,99.2
2018-12-18T02:15:16.926Z,99.2
2018-12-18T02:16:16.189Z,99.2
2018-12-18T02:17:16.463Z,99.2
2018-12-18T02:18:16.744Z,99.2
2018-12-18T02:19:17.004Z,99.2
2018-12-18T02:20:16.284Z,99.2
2018-12-18T02:21:16.308Z,99.2
2018-12-18T02:22:16.572Z,99.2
2018-12-18T02:23:16.836Z,99.1
2018-12-18T02:24:17.107Z,99.2
2018-12-18T02:25:16.382Z,99.1
2018-12-18T02:26:16.651Z,99.2
2018-12-18T02:27:16.914Z,99.1
2018-12-18T02:28:16.172Z,99.1
2018-12-18T02:29:16.463Z,99.1
2018-12-18T02:30:16.777Z,99.2
2018-12-18T02:31:16.796Z,99.2
2018-12-18T02:32:17.089Z,99.2
2018-12-18T02:33:16.381Z,99.2
2018-12-18T02:34:16.652Z,99.2
2018-12-18T02:35:16.961Z,99.2
2018-12-18T02:36:16.255Z,99.2
2018-12-18T02:37:16.531Z,99.2
2018-12-18T02:38:16.794Z,99.2
2018-12-18T02:39:17.058Z,99.2
2018-12-18T02:40:16.327Z,99.2
2018-12-18T02:41:16.394Z,99.3
2018-12-18T02:42:16.661Z,99.3
2018-12-18T02:43:16.933Z,99.3
2018-12-18T02:44:16.210Z,99.3
2018-12-18T02:45:16.480Z,99.3
2018-12-18T02:46:16.735Z,99.3
2018-12-18T02:47:17.001Z,99.3
2018-12-18T02:48:16.274Z,99.3
2018-12-18T02:49:16.553Z,99.3
2018-12-18T02:50:16.862Z,99.4
2018-12-18T02:51:16.869Z,99.5
2018-12-18T02:52:16.135Z,99.5
2018-12-18T02:53:16.401Z,99.5
2018-12-18T02:54:16.676Z,99.4
2018-12-18T02:55:16.940Z,99.5
2018-12-18T02:56:16.201Z,99.5
2018-12-18T02:57:16.460Z,99.5
2018-12-18T02:58:16.731Z,99.5
2018-12-18T02:59:16.999Z,99.5
2018-12-18T03:00:16.281Z,99.5
2018-12-18T03:01:16.316Z,99.5
2018-12-18T03:02:16.597Z,99.5
2018-12-18T03:03:16.870Z,99.5
2018-12-18T03:04:22.020Z,99.5
2018-12-18T03:05:16.327Z,99.5
2018-12-18T03:06:16.593Z,99.5
2018-12-18T03:07:16.867Z,99.5
2018-12-18T03:08:16.137Z,99.5
2018-12-18T03:09:16.419Z,99.5
2018-12-18T03:10:16.693Z,99.5
2018-12-18T03:11:16.740Z,99.5
2018-12-18T03:12:17.016Z,99.5
2018-12-18T03:13:16.278Z,99.5
2018-12-18T03:14:16.543Z,99.5
2018-12-18T03:15:16.798Z,99.5
2018-12-18T03:16:17.093Z,99.5
2018-12-18T03:17:16.362Z,99.5
2018-12-18T03:18:16.634Z,99.5
2018-12-18T03:19:16.907Z,99.5
2018-12-18T03:20:16.192Z,99.5
2018-12-18T03:21:16.219Z,99.5
2018-12-18T03:22:16.498Z,99.3
2018-12-18T03:23:16.769Z,99.3
2018-12-18T03:24:17.047Z,99.4
2018-12-18T03:25:16.323Z,99.5
2018-12-18T03:26:16.662Z,99.5
2018-12-18T03:27:16.938Z,99.5
2018-12-18T03:28:16.210Z,99.5
2018-12-18T03:29:16.473Z,99.4
2018-12-18T03:30:16.753Z,99.3
2018-12-18T03:31:16.807Z,99.3
2018-12-18T03:32:17.136Z,99.3
2018-12-18T03:33:16.417Z,99.3
2018-12-18T03:34:16.692Z,99.5
2018-12-18T03:35:16.975Z,99.5
2018-12-18T03:36:16.246Z,99.5
2018-12-18T03:37:16.514Z,99.5
2018-12-18T03:38:17.053Z,99.5
2018-12-18T03:39:16.330Z,99.5
2018-12-18T03:40:16.629Z,99.6
2018-12-18T03:41:16.653Z,99.7
2018-12-18T03:42:16.929Z,99.6
2018-12-18T03:43:16.201Z,99.7
2018-12-18T03:44:16.472Z,99.7
2018-12-18T03:45:16.735Z,99.7
2018-12-18T03:46:17.010Z,99.8
2018-12-18T03:47:16.293Z,99.7
2018-12-18T03:48:16.558Z,99.5
2018-12-18T03:49:16.829Z,99.6
2018-12-18T03:50:17.131Z,99.5
2018-12-18T03:51:16.164Z,99.7
2018-12-18T03:52:16.425Z,99.7
2018-12-18T03:53:16.684Z,99.8
2018-12-18T03:54:16.948Z,99.8
2018-12-18T03:55:16.239Z,99.8
2018-12-18T03:56:16.501Z,99.8
2018-12-18T03:57:16.765Z,99.9
2018-12-18T03:58:17.049Z,100.0
2018-12-18T03:59:16.315Z,99.9
2018-12-18T04:00:16.589Z,99.8
2018-12-18T04:01:16.625Z,99.9
2018-12-18T04:02:17.163Z,99.9
2018-12-18T04:03:16.429Z,99.9
2018-12-18T04:04:16.689Z,99.8
2018-12-18T04:05:16.958Z,99.8
2018-12-18T04:06:16.239Z,99.8
2018-12-18T04:07:16.511Z,99.8
2018-12-18T04:08:16.785Z,99.8
2018-12-18T04:09:17.076Z,99.9
2018-12-18T04:10:16.354Z,99.9
2018-12-18T04:11:16.407Z,99.8
2018-12-18T04:12:16.675Z,99.8
2018-12-18T04:13:16.937Z,99.8
2018-12-18T04:14:16.218Z,99.8
2018-12-18T04:15:16.493Z,99.8
2018-12-18T04:16:16.756Z,99.8
2018-12-18T04:17:17.025Z,99.8
2018-12-18T04:18:16.297Z,99.8
2018-12-18T04:19:16.554Z,99.8
2018-12-18T04:20:16.843Z,99.8
2018-12-18T04:21:16.864Z,99.7
2018-12-18T04:22:16.134Z,99.8
2018-12-18T04:23:16.409Z,99.8
2018-12-18T04:24:16.692Z,99.8
2018-12-18T04:25:16.962Z,99.8
2018-12-18T04:26:16.221Z,99.8
2018-12-18T04:27:16.484Z,99.8
2018-12-18T04:28:16.751Z,99.8
2018-12-18T04:29:17.035Z,99.8
2018-12-18T04:30:16.305Z,99.8
2018-12-18T04:31:16.369Z,99.8
2018-12-18T04:32:16.628Z,99.8
2018-12-18T04:33:16.894Z,99.8
2018-12-18T04:34:16.162Z,99.8
2018-12-18T04:35:16.454Z,99.8
2018-12-18T04:36:16.712Z,99.8
2018-12-18T04:37:16.980Z,99.8
2018-12-18T04:38:16.254Z,99.8
2018-12-18T04:39:16.532Z,99.8
2018-12-18T04:40:16.800Z,99.8
2018-12-18T04:41:16.238Z,99.8
2018-12-18T04:42:16.498Z,99.8
2018-12-18T04:43:16.760Z,99.8
2018-12-18T04:44:17.305Z,99.8
2018-12-18T04:45:16.605Z,99.8
2018-12-18T04:46:16.876Z,99.8
2018-12-18T04:47:16.133Z,99.8
2018-12-18T04:48:16.419Z,99.8
2018-12-18T04:49:16.680Z,99.8
2018-12-18T04:50:16.948Z,99.8
2018-12-18T04:51:16.983Z,99.8
2018-12-18T04:52:16.255Z,99.8
2018-12-18T04:53:16.508Z,99.8
2018-12-18T04:54:16.781Z,99.8
2018-12-18T04:55:17.049Z,99.8
2018-12-18T04:56:16.340Z,99.8
2018-12-18T04:57:16.624Z,99.8
2018-12-18T04:58:16.888Z,99.7
2018-12-18T04:59:16.154Z,99.7
2018-12-18T05:00:16.442Z,99.7
2018-12-18T05:01:16.468Z,99.8
2018-12-18T05:02:16.721Z,99.7
2018-12-18T05:03:16.982Z,99.7
2018-12-18T05:04:16.253Z,99.7
2018-12-18T05:05:16.529Z,99.7
2018-12-18T05:06:16.803Z,99.7
2018-12-18T05:07:17.076Z,99.6
2018-12-18T05:08:16.341Z,99.7
2018-12-18T05:09:16.614Z,99.7
2018-12-18T05:10:16.899Z,99.6
2018-12-18T05:11:16.938Z,99.6
2018-12-18T05:12:16.216Z,99.6
2018-12-18T05:13:16.502Z,99.5
2018-12-18T05:14:16.769Z,99.5
2018-12-18T05:15:17.044Z,99.5
2018-12-18T05:16:16.310Z,99.5
2018-12-18T05:17:16.575Z,99.5
2018-12-18T05:18:16.842Z,99.6
2018-12-18T05:19:16.114Z,99.5
2018-12-18T05:20:16.394Z,99.5
2018-12-18T05:21:16.432Z,99.6
2018-12-18T05:22:16.710Z,99.6
2018-12-18T05:23:16.963Z,99.5
2018-12-18T05:24:16.227Z,99.6
2018-12-18T05:25:16.515Z,99.5
2018-12-18T05:26:16.782Z,99.5
2018-12-18T05:27:17.049Z,99.5
2018-12-18T05:28:16.481Z,99.5
2018-12-18T05:29:16.755Z,99.5
2018-12-18T05:30:17.038Z,99.5
2018-12-18T05:31:17.070Z,99.5
2018-12-18T05:32:16.339Z,99.5
2018-12-18T05:33:16.607Z,99.5
2018-12-18T05:34:16.875Z,99.5
2018-12-18T05:35:16.140Z,99.5
2018-12-18T05:36:16.412Z,99.5
2018-12-18T05:37:16.679Z,99.5
2018-12-18T05:38:16.939Z,99.5
2018-12-18T05:39:16.206Z,99.5
2018-12-18T05:40:16.486Z,99.5
2018-12-18T05:41:16.544Z,99.6
2018-12-18T05:42:16.805Z,99.6
2018-12-18T05:43:17.067Z,99.6
2018-12-18T05:44:16.333Z,99.7
2018-12-18T05:45:16.607Z,99.7
2018-12-18T05:46:16.875Z,99.6
2018-12-18T05:47:16.144Z,99.6
2018-12-18T05:48:16.405Z,99.5
2018-12-18T05:49:16.663Z,99.5
2018-12-18T05:50:16.934Z,99.5
2018-12-18T05:51:16.998Z,99.5
2018-12-18T05:52:16.270Z,99.5
2018-12-18T05:53:16.532Z,99.5
2018-12-18T05:54:16.791Z,99.5
2018-12-18T05:55:17.047Z,99.5
2018-12-18T05:56:16.317Z,99.5
2018-12-18T05:57:16.581Z,99.5
2018-12-18T05:58:16.841Z,99.5
2018-12-18T05:59:16.115Z,99.5
2018-12-18T06:00:16.392Z,99.5
2018-12-18T06:01:16.454Z,99.5
2018-12-18T06:02:16.726Z,99.5
2018-12-18T06:03:16.993Z,99.5
2018-12-18T06:04:16.259Z,99.5
2018-12-18T06:05:16.523Z,99.5
2018-12-18T06:06:16.787Z,99.5
2018-12-18T06:07:17.047Z,99.5
2018-12-18T06:08:16.315Z,99.5
2018-12-18T06:09:16.578Z,99.5
2018-12-18T06:10:16.843Z,99.5
2018-12-18T06:11:16.890Z,99.5
2018-12-18T06:12:16.156Z,99.5
2018-12-18T06:13:16.413Z,99.5
2018-12-18T06:14:16.668Z,99.5
2018-12-18T06:15:16.946Z,99.5
2018-12-18T06:16:16.224Z,99.5
2018-12-18T06:17:16.487Z,99.5
2018-12-18T06:18:16.745Z,99.5
2018-12-18T06:19:17.018Z,99.5
2018-12-18T06:20:16.289Z,99.5
2018-12-18T06:21:16.326Z,99.5
2018-12-18T06:22:16.589Z,99.5
2018-12-18T06:23:16.859Z,99.6
2018-12-18T06:24:16.121Z,99.5
2018-12-18T06:25:16.799Z,99.5
2018-12-18T06:26:17.058Z,99.5
2018-12-18T06:27:16.322Z,99.5
2018-12-18T06:28:16.599Z,99.5
2018-12-18T06:29:16.897Z,99.5
2018-12-18T06:30:16.171Z,99.5
2018-12-18T06:31:16.235Z,99.5
2018-12-18T06:32:16.508Z,99.5
2018-12-18T06:33:16.778Z,99.5
2018-12-18T06:34:17.049Z,99.5
2018-12-18T06:35:16.338Z,99.5
2018-12-18T06:36:16.627Z,99.5
2018-12-18T06:37:16.901Z,99.5
2018-12-18T06:38:16.171Z,99.5
2018-12-18T06:39:16.427Z,99.5
2018-12-18T06:40:16.699Z,99.5
2018-12-18T06:41:16.762Z,99.5
2018-12-18T06:42:17.022Z,99.5
2018-12-18T06:43:16.284Z,99.6
2018-12-18T06:44:16.549Z,99.7
2018-12-18T06:45:16.832Z,99.7
2018-12-18T06:46:17.100Z,99.6
2018-12-18T06:47:16.360Z,99.7
2018-12-18T06:48:16.622Z,99.7
2018-12-18T06:49:16.887Z,99.7
2018-12-18T06:50:16.146Z,99.7
2018-12-18T06:51:16.211Z,99.7
2018-12-18T06:52:16.474Z,99.7
2018-12-18T06:53:16.732Z,99.7
2018-12-18T06:54:16.998Z,99.7
2018-12-18T06:55:16.261Z,99.7
2018-12-18T06:56:16.522Z,99.7
2018-12-18T06:57:16.800Z,99.7
2018-12-18T06:58:17.062Z,99.7
2018-12-18T06:59:16.382Z,99.7
2018-12-18T07:00:16.665Z,99.8
2018-12-18T07:01:16.722Z,99.8
2018-12-18T07:02:16.982Z,99.7
2018-12-18T07:03:16.255Z,99.7
2018-12-18T07:04:16.531Z,99.7
2018-12-18T07:05:17.277Z,99.7
2018-12-18T07:06:16.550Z,99.6
2018-12-18T07:07:16.809Z,99.6
2018-12-18T07:08:17.085Z,99.7
2018-12-18T07:09:16.356Z,99.7
2018-12-18T07:10:16.647Z,99.7
2018-12-18T07:11:16.685Z,99.8
2018-12-18T07:12:16.946Z,99.8
2018-12-18T07:13:16.209Z,99.8
2018-12-18T07:14:16.480Z,99.8
2018-12-18T07:15:16.745Z,99.8
2018-12-18T07:16:17.018Z,99.8
2018-12-18T07:17:16.287Z,99.8
2018-12-18T07:18:16.563Z,99.8
2018-12-18T07:19:16.829Z,99.8
2018-12-18T07:20:17.105Z,99.8
2018-12-18T07:21:16.143Z,99.7
2018-12-18T07:22:16.406Z,99.7
2018-12-18T07:23:16.687Z,99.8
2018-12-18T07:24:16.962Z,99.8
2018-12-18T07:25:16.251Z,99.7
2018-12-18T07:26:16.517Z,99.7
2018-12-18T07:27:16.782Z,99.7
2018-12-18T07:28:17.043Z,99.7
2018-12-18T07:29:16.309Z,99.7
2018-12-18T07:30:16.585Z,99.7
2018-12-18T07:31:16.641Z,99.7
2018-12-18T07:32:16.915Z,99.7
2018-12-18T07:33:16.180Z,99.8
2018-12-18T07:34:16.442Z,99.7
2018-12-18T07:35:23.587Z,99.7
2018-12-18T07:36:16.923Z,99.7
2018-12-18T07:37:16.188Z,99.7
2018-12-18T07:38:16.458Z,99.7
2018-12-18T07:39:16.719Z,99.7
2018-12-18T07:40:16.996Z,99.7
2018-12-18T07:41:17.043Z,99.7
2018-12-18T07:42:16.319Z,99.7
2018-12-18T07:43:16.577Z,99.7
2018-12-18T07:44:16.843Z,99.6
2018-12-18T07:45:16.109Z,99.6
2018-12-18T07:46:16.386Z,99.6
2018-12-18T07:47:16.650Z,99.5
2018-12-18T07:48:16.916Z,99.5
2018-12-18T07:49:16.179Z,99.5
2018-12-18T07:50:16.463Z,99.5
2018-12-18T07:51:16.518Z,99.5
2018-12-18T07:52:16.795Z,99.5
2018-12-18T07:53:17.064Z,99.5
2018-12-18T07:54:16.332Z,99.5
2018-12-18T07:55:16.594Z,99.5
2018-12-18T07:56:16.859Z,99.5
2018-12-18T07:57:16.129Z,99.5
2018-12-18T07:58:16.397Z,99.4
2018-12-18T07:59:16.653Z,99.3
2018-12-18T08:00:16.946Z,99.3
2018-12-18T08:01:16.978Z,99.3
2018-12-18T08:02:16.252Z,99.3
2018-12-18T08:03:16.517Z,99.3
2018-12-18T08:04:16.798Z,99.2
2018-12-18T08:05:17.067Z,99.2
2018-12-18T08:06:16.337Z,99.2
2018-12-18T08:07:16.608Z,99.2
2018-12-18T08:08:16.883Z,99.1
2018-12-18T08:09:16.143Z,99.2
2018-12-18T08:10:16.403Z,99.0
2018-12-18T08:11:16.451Z,99.0
2018-12-18T08:12:16.722Z,98.9
2018-12-18T08:13:17.001Z,98.8
2018-12-18T08:14:16.284Z,98.8
2018-12-18T08:15:16.552Z,98.8
2018-12-18T08:16:16.824Z,98.8
2018-12-18T08:17:17.090Z,98.6
2018-12-18T08:18:16.364Z,98.4
2018-12-18T08:19:16.622Z,98.3
2018-12-18T08:20:16.913Z,98.2
2018-12-18T08:21:16.957Z,98.2
2018-12-18T08:22:16.211Z,98.2
2018-12-18T08:23:16.483Z,98.0
2018-12-18T08:24:16.759Z,97.9
2018-12-18T08:25:17.041Z,98.0
2018-12-18T08:26:16.308Z,97.8
2018-12-18T08:27:16.570Z,97.8
2018-12-18T08:28:16.833Z,97.7
2018-12-18T08:29:16.168Z,97.7
2018-12-18T08:30:16.436Z,97.8
2018-12-18T08:31:16.476Z,97.5
2018-12-18T08:32:16.743Z,97.6
2018-12-18T08:33:17.017Z,97.5
2018-12-18T08:34:16.288Z,97.4
2018-12-18T08:35:16.568Z,97.5
2018-12-18T08:36:16.839Z,97.4
2018-12-18T08:37:16.097Z,97.6
2018-12-18T08:38:16.366Z,97.6
2018-12-18T08:39:16.625Z,97.8
2018-12-18T08:40:16.922Z,98.0
2018-12-18T08:41:16.947Z,98.1
2018-12-18T08:42:16.211Z,98.0
2018-12-18T08:43:16.477Z,98.2
2018-12-18T08:44:16.738Z,98.0
2018-12-18T08:45:17.006Z,97.8
2018-12-18T08:46:16.278Z,97.8
2018-12-18T08:47:16.548Z,97.8
2018-12-18T08:48:16.814Z,97.6
2018-12-18T08:49:17.081Z,97.5
2018-12-18T08:50:16.366Z,97.5
2018-12-18T08:51:16.417Z,97.5
2018-12-18T08:52:16.685Z,97.6
2018-12-18T08:53:16.950Z,97.5
2018-12-18T08:54:16.217Z,97.7
2018-12-18T08:55:16.497Z,97.7
2018-12-18T08:56:16.760Z,97.9
2018-12-18T08:57:17.021Z,98.2
2018-12-18T08:58:16.289Z,98.2
2018-12-18T08:59:16.541Z,98.3
2018-12-18T09:00:16.810Z,98.3
2018-12-18T09:01:16.854Z,98.3
2018-12-18T09:02:16.119Z,98.3
2018-12-18T09:03:16.383Z,98.3
2018-12-18T09:04:16.652Z,98.3
2018-12-18T09:05:16.922Z,98.2
2018-12-18T09:06:16.465Z,98.2
2018-12-18T09:07:16.732Z,98.1
2018-12-18T09:08:17.010Z,98.2
2018-12-18T09:09:16.277Z,98.3
2018-12-18T09:10:16.569Z,98.5
2018-12-18T09:11:16.617Z,98.5
2018-12-18T09:12:16.883Z,98.5
2018-12-18T09:13:16.146Z,98.5
2018-12-18T09:14:16.408Z,98.3
2018-12-18T09:15:16.679Z,98.1
2018-12-18T09:16:16.944Z,98.1
2018-12-18T09:17:16.214Z,98.0
2018-12-18T09:18:16.480Z,97.8
2018-12-18T09:19:16.740Z,97.8
2018-12-18T09:20:17.000Z,97.7
2018-12-18T09:21:17.051Z,97.5
2018-12-18T09:22:16.318Z,96.7
2018-12-18T09:23:16.618Z,96.5
2018-12-18T09:24:16.889Z,96.5
2018-12-18T09:25:16.144Z,96.3
2018-12-18T09:26:16.403Z,96.2
2018-12-18T09:27:16.678Z,96.2
2018-12-18T09:28:16.942Z,96.3
2018-12-18T09:29:16.206Z,96.2
2018-12-18T09:30:16.488Z,96.5
2018-12-18T09:31:16.512Z,96.8
2018-12-18T09:32:16.769Z,96.8
2018-12-18T09:33:17.038Z,97.0
2018-12-18T09:34:16.306Z,97.2
2018-12-18T09:35:16.572Z,97.0
2018-12-18T09:36:16.832Z,97.0
2018-12-18T09:37:17.103Z,97.0
2018-12-18T09:38:16.379Z,97.0
2018-12-18T09:39:16.640Z,97.0
2018-12-18T09:40:16.913Z,96.8
2018-12-18T09:41:17.029Z,96.8
2018-12-18T09:42:16.294Z,96.3
2018-12-18T09:43:16.561Z,96.5
2018-12-18T09:44:16.834Z,96.4
2018-12-18T09:45:17.101Z,96.6
2018-12-18T09:46:16.369Z,96.5
2018-12-18T09:47:16.633Z,96.4
2018-12-18T09:48:16.908Z,96.5
2018-12-18T09:49:16.173Z,96.4
2018-12-18T09:50:16.463Z,96.3
2018-12-18T09:51:16.495Z,96.2
2018-12-18T09:52:16.755Z,96.2
2018-12-18T09:53:17.040Z,96.0
2018-12-18T09:54:16.301Z,95.6
2018-12-18T09:55:16.562Z,95.6
2018-12-18T09:56:16.828Z,95.5
2018-12-18T09:57:17.098Z,95.5
2018-12-18T09:58:16.358Z,95.5
2018-12-18T09:59:16.647Z,95.4
2018-12-18T10:00:16.920Z,95.3
2018-12-18T10:01:16.971Z,95.6
2018-12-18T10:02:16.233Z,95.3
2018-12-18T10:03:16.526Z,95.2
2018-12-18T10:04:16.802Z,95.2
2018-12-18T10:05:17.068Z,95.4
2018-12-18T10:06:16.342Z,95.5
2018-12-18T10:07:16.623Z,95.2
2018-12-18T10:08:16.898Z,95.0
2018-12-18T10:09:16.161Z,95.0
2018-12-18T10:10:16.441Z,95.5
2018-12-18T10:11:16.499Z,95.0
2018-12-18T10:12:16.782Z,95.0
2018-12-18T10:13:17.057Z,94.8
2018-12-18T10:14:16.329Z,95.0
2018-12-18T10:15:16.595Z,94.9
2018-12-18T10:16:16.869Z,94.8
2018-12-18T10:17:16.130Z,94.8
2018-12-18T10:18:16.386Z,94.7
2018-12-18T10:19:16.656Z,95.0
2018-12-18T10:20:16.963Z,94.6
2018-12-18T10:21:16.963Z,94.7
2018-12-18T10:22:16.225Z,94.8
2018-12-18T10:23:16.494Z,94.8
2018-12-18T10:24:16.825Z,94.7
2018-12-18T10:25:17.084Z,94.5
2018-12-18T10:26:16.348Z,94.5
2018-12-18T10:27:16.617Z,94.8
2018-12-18T10:28:16.881Z,94.6
2018-12-18T10:29:16.139Z,94.8
2018-12-18T10:30:16.414Z,94.8
2018-12-18T10:31:16.454Z,94.9
2018-12-18T10:32:16.717Z,94.8
2018-12-18T10:33:16.980Z,95.0
2018-12-18T10:34:16.247Z,94.8
2018-12-18T10:35:16.523Z,95.0
2018-12-18T10:36:16.789Z,95.0
2018-12-18T10:37:17.052Z,95.3
2018-12-18T10:38:16.329Z,95.2
2018-12-18T10:39:16.590Z,94.9
2018-12-18T10:40:16.864Z,94.7
2018-12-18T10:41:16.921Z,94.8
2018-12-18T10:42:16.186Z,94.8
2018-12-18T10:43:16.453Z,94.8
2018-12-18T10:44:16.721Z,94.7
2018-12-18T10:45:16.993Z,95.2
2018-12-18T10:46:16.259Z,95.4
2018-12-18T10:47:16.527Z,95.2
2018-12-18T10:48:16.790Z,95.4
2018-12-18T10:49:17.071Z,95.6
2018-12-18T10:50:16.341Z,95.8
2018-12-18T10:51:16.388Z,95.8
2018-12-18T10:52:16.656Z,95.8
2018-12-18T10:53:16.933Z,95.9
2018-12-18T10:54:16.223Z,95.8
2018-12-18T10:55:16.497Z,95.8
2018-12-18T10:56:16.758Z,95.8
2018-12-18T10:57:17.024Z,96.1
2018-12-18T10:58:16.309Z,96.1
2018-12-18T10:59:16.661Z,96.2
2018-12-18T11:00:16.977Z,96.2
2018-12-18T11:01:16.992Z,95.9
2018-12-18T11:02:16.267Z,96.0
2018-12-18T11:03:16.548Z,95.7
2018-12-18T11:04:16.812Z,95.5
2018-12-18T11:05:17.090Z,95.5
2018-12-18T11:06:16.371Z,95.5
2018-12-18T11:07:16.630Z,95.5
2018-12-18T11:08:16.907Z,95.4
2018-12-18T11:09:16.164Z,95.5
2018-12-18T11:10:16.443Z,95.1
2018-12-18T11:11:16.496Z,95.0
2018-12-18T11:12:16.764Z,94.8
2018-12-18T11:13:17.040Z,94.7
2018-12-18T11:14:16.303Z,94.5
2018-12-18T11:15:16.577Z,94.2
2018-12-18T11:16:16.847Z,94.2
2018-12-18T11:17:16.099Z,93.8
2018-12-18T11:18:16.360Z,93.5
2018-12-18T11:19:16.714Z,93.6
2018-12-18T11:20:16.996Z,93.3
2018-12-18T11:21:17.016Z,93.4
2018-12-18T11:22:16.274Z,92.6
2018-12-18T11:23:16.540Z,92.4
2018-12-18T11:24:16.805Z,92.2
2018-12-18T11:25:17.062Z,92.2
2018-12-18T11:26:16.322Z,92.3
2018-12-18T11:27:16.576Z,92.3
2018-12-18T11:28:16.852Z,91.5
2018-12-18T11:29:16.116Z,91.0
2018-12-18T11:30:16.396Z,91.1
2018-12-18T11:31:16.443Z,91.4
2018-12-18T11:32:16.719Z,92.0
2018-12-18T11:33:16.980Z,91.8
2018-12-18T11:34:16.250Z,92.2
2018-12-18T11:35:16.522Z,91.7
2018-12-18T11:36:16.933Z,91.8
2018-12-18T11:37:16.210Z,91.7
2018-12-18T11:38:16.477Z,91.8
2018-12-18T11:39:16.747Z,92.3
2018-12-18T11:40:17.028Z,92.2
2018-12-18T11:41:17.054Z,91.9
2018-12-18T11:42:16.386Z,92.5
2018-12-18T11:43:16.666Z,92.2
2018-12-18T11:44:16.936Z,92.2
2018-12-18T11:45:16.265Z,92.1
2018-12-18T11:46:16.531Z,92.2
2018-12-18T11:47:16.803Z,92.3
2018-12-18T11:48:17.074Z,92.2
2018-12-18T11:49:16.343Z,92.1
2018-12-18T11:50:16.628Z,92.2
2018-12-18T11:51:16.667Z,92.2
2018-12-18T11:52:16.928Z,92.4
2018-12-18T11:53:16.194Z,92.5
2018-12-18T11:54:16.459Z,92.7
2018-12-18T11:55:16.728Z,92.8
2018-12-18T11:56:17.009Z,92.6
2018-12-18T11:57:16.272Z,92.5
2018-12-18T11:58:16.535Z,92.7
2018-12-18T11:59:16.811Z,92.7
2018-12-18T12:00:17.084Z,93.1
2018-12-18T12:01:16.149Z,93.1
2018-12-18T12:02:16.436Z,93.6
2018-12-18T12:03:16.772Z,93.7
2018-12-18T12:04:17.047Z,93.8
2018-12-18T12:05:16.303Z,93.6
2018-12-18T12:06:23.286Z,93.5
2018-12-18T12:07:16.583Z,93.4
2018-12-18T12:08:16.851Z,93.3
2018-12-18T12:09:16.128Z,93.2
2018-12-18T12:10:16.422Z,93.2
2018-12-18T12:11:16.444Z,93.2
2018-12-18T12:12:16.702Z,92.8
2018-12-18T12:13:16.973Z,92.8
2018-12-18T12:14:16.241Z,92.8
2018-12-18T12:15:16.512Z,92.5
2018-12-18T12:16:16.771Z,92.8
2018-12-18T12:17:17.061Z,92.7
2018-12-18T12:18:16.334Z,92.5
2018-12-18T12:19:16.597Z,92.1
2018-12-18T12:20:16.882Z,92.1
2018-12-18T12:21:16.904Z,91.8
2018-12-18T12:22:16.170Z,91.7
2018-12-18T12:23:16.432Z,91.4
2018-12-18T12:24:16.703Z,91.3
2018-12-18T12:25:16.967Z,91.3
2018-12-18T12:26:16.230Z,91.6
2018-12-18T12:27:16.515Z,91.6
2018-12-18T12:28:16.782Z,91.5
2018-12-18T12:29:17.069Z,91.3
2018-12-18T12:30:16.347Z,91.2
2018-12-18T12:31:16.378Z,91.2
2018-12-18T12:32:16.647Z,91.2
2018-12-18T12:33:16.906Z,91.1
2018-12-18T12:34:16.181Z,91.3
2018-12-18T12:35:16.475Z,91.8
2018-12-18T12:36:16.733Z,91.1
2018-12-18T12:37:17.001Z,91.1
2018-12-18T12:38:16.266Z,90.7
2018-12-18T12:39:16.534Z,90.2
2018-12-18T12:40:16.810Z,90.2
2018-12-18T12:41:16.850Z,90.3
2018-12-18T12:42:16.109Z,90.2
2018-12-18T12:43:16.374Z,90.2
2018-12-18T12:44:16.650Z,89.3
2018-12-18T12:45:16.920Z,89.2
2018-12-18T12:46:16.183Z,88.8
2018-12-18T12:47:16.449Z,89.0
2018-12-18T12:48:16.710Z,88.2
2018-12-18T12:49:16.980Z,88.7
2018-12-18T12:50:16.275Z,88.7
2018-12-18T12:51:16.315Z,88.7
2018-12-18T12:52:16.579Z,88.3
2018-12-18T12:53:16.849Z,88.7
2018-12-18T12:54:16.105Z,88.2
2018-12-18T12:55:16.371Z,88.1
2018-12-18T12:56:16.632Z,87.9
2018-12-18T12:57:16.895Z,87.2
2018-12-18T12:58:16.159Z,87.5
2018-12-18T12:59:16.420Z,86.8
2018-12-18T13:00:16.692Z,86.3
2018-12-18T13:01:16.750Z,86.8
2018-12-18T13:02:17.022Z,86.3
2018-12-18T13:03:16.289Z,86.3
2018-12-18T13:04:16.564Z,85.6
2018-12-18T13:05:16.904Z,85.2
2018-12-18T13:06:16.167Z,85.5
2018-12-18T13:07:16.437Z,85.9
2018-12-18T13:08:16.702Z,86.0
2018-12-18T13:09:16.968Z,86.2
2018-12-18T13:10:16.239Z,86.0
2018-12-18T13:11:16.267Z,86.2
2018-12-18T13:12:16.544Z,86.1
2018-12-18T13:13:16.811Z,86.5
2018-12-18T13:14:17.080Z,86.4
2018-12-18T13:15:16.360Z,86.8
2018-12-18T13:16:16.626Z,85.8
2018-12-18T13:17:16.894Z,86.7
2018-12-18T13:18:16.151Z,86.2